createdAt,value
2023-03-03T00:00:11.452Z,66.52
2023-03-03T00:02:41.788Z,65.99
2023-03-03T00:05:09.340Z,66.14
2023-03-03T00:07:36.327Z,66.05
2023-03-03T00:10:04.088Z,66.43
2023-03-03T00:12:31.719Z,66.38
2023-03-03T00:14:58.775Z,65.86
2023-03-03T00:17:30.716Z,66.10
2023-03-03T00:19:57.673Z,66.17
2023-03-03T00:22:36.152Z,66.01
2023-03-03T00:25:29.377Z,66.15
2023-03-03T00:28:01.878Z,66.02
2023-03-03T00:30:29.597Z,66.18
2023-03-03T00:32:56.769Z,66.00
2023-03-03T00:35:38.811Z,66.24
2023-03-03T00:38:18.365Z,66.27
2023-03-03T00:40:48.051Z,65.79
2023-03-03T00:43:21.386Z,65.89
2023-03-03T00:45:58.709Z,66.11
2023-03-03T00:48:43.022Z,65.77
2023-03-03T00:51:31.104Z,65.69
2023-03-03T00:53:59.745Z,64.96
2023-03-03T00:56:27.819Z,65.74
2023-03-03T00:58:54.938Z,65.95
2023-03-03T01:01:25.642Z,65.76
2023-03-03T01:03:54.263Z,65.53
2023-03-03T01:06:21.316Z,65.92
2023-03-03T01:08:48.340Z,65.84
2023-03-03T01:11:28.691Z,66.07
2023-03-03T01:13:57.224Z,65.84
2023-03-03T01:16:24.345Z,65.61
2023-03-03T01:18:51.360Z,65.89
2023-03-03T01:21:18.495Z,66.33
2023-03-03T01:23:45.557Z,66.17
2023-03-03T01:26:12.552Z,66.43
2023-03-03T01:28:39.561Z,66.29
2023-03-03T01:31:07.074Z,66.63
2023-03-03T01:33:36.402Z,66.57
2023-03-03T01:36:04.643Z,67.23
2023-03-03T01:38:32.298Z,67.11
2023-03-03T01:41:00.417Z,67.12
2023-03-03T01:43:29.237Z,67.27
2023-03-03T01:45:59.203Z,68.24
2023-03-03T01:48:38.203Z,69.08
2023-03-03T01:51:08.140Z,68.54
2023-03-03T01:53:42.792Z,67.57
2023-03-03T01:56:10.829Z,67.68
2023-03-03T01:58:44.262Z,68.21
2023-03-03T02:01:17.865Z,67.70
2023-03-03T02:03:45.374Z,67.47
2023-03-03T02:06:16.759Z,67.60
2023-03-03T02:08:49.347Z,68.66
2023-03-03T02:11:16.948Z,68.29
2023-03-03T02:13:43.924Z,68.36
2023-03-03T02:16:11.018Z,68.03
2023-03-03T02:18:38.514Z,67.79
2023-03-03T02:21:12.541Z,68.44
2023-03-03T02:23:57.793Z,68.17
2023-03-03T02:26:27.470Z,67.88
2023-03-03T02:28:59.826Z,67.86
2023-03-03T02:31:30.697Z,67.94
2023-03-03T02:33:57.848Z,67.45
2023-03-03T02:36:30.460Z,67.63
2023-03-03T02:39:15.691Z,67.83
2023-03-03T02:41:53.460Z,67.68
2023-03-03T02:44:27.350Z,67.58
2023-03-03T02:46:58.196Z,67.67
2023-03-03T02:49:34.012Z,67.61
2023-03-03T02:52:05.695Z,67.67
2023-03-03T02:54:33.490Z,67.20
2023-03-03T02:57:03.401Z,67.60
2023-03-03T02:59:30.836Z,67.64
2023-03-03T03:02:02.611Z,67.16
2023-03-03T03:04:29.856Z,67.48
2023-03-03T03:06:57.127Z,67.37
2023-03-03T03:09:28.394Z,67.49
2023-03-03T03:11:55.851Z,67.21
2023-03-03T03:14:26.234Z,67.01
2023-03-03T03:16:54.699Z,67.47
2023-03-03T03:19:21.898Z,67.16
2023-03-03T03:21:48.990Z,67.34
2023-03-03T03:24:16.808Z,67.46
2023-03-03T03:26:48.261Z,67.46
2023-03-03T03:29:15.731Z,67.34
2023-03-03T03:31:43.975Z,67.49
2023-03-03T03:34:11.178Z,67.77
2023-03-03T03:36:40.026Z,67.48
2023-03-03T03:39:08.080Z,67.57
2023-03-03T03:41:38.033Z,67.31
2023-03-03T03:44:05.260Z,67.37
2023-03-03T03:46:32.325Z,67.30
2023-03-03T03:48:59.424Z,67.46
2023-03-03T03:51:26.916Z,68.17
2023-03-03T03:53:53.909Z,68.16
2023-03-03T03:56:21.070Z,67.88
2023-03-03T03:58:51.692Z,68.19
2023-03-03T04:01:18.935Z,67.81
2023-03-03T04:03:49.324Z,68.85
2023-03-03T04:06:19.654Z,68.18
2023-03-03T04:08:47.601Z,68.84
2023-03-03T04:11:15.837Z,68.35
2023-03-03T04:13:43.153Z,68.52
2023-03-03T04:16:12.087Z,68.08
2023-03-03T04:18:44.391Z,68.26
2023-03-03T04:21:15.616Z,67.91
2023-03-03T04:23:43.955Z,67.94
2023-03-03T04:26:11.499Z,67.84
2023-03-03T04:28:39.298Z,68.11
2023-03-03T04:31:07.152Z,67.43
2023-03-03T04:33:34.798Z,68.26
2023-03-03T04:36:03.256Z,68.52
2023-03-03T04:38:31.391Z,68.75
2023-03-03T04:40:58.480Z,68.79
2023-03-03T04:43:28.294Z,68.41
2023-03-03T04:45:56.367Z,68.97
2023-03-03T04:48:23.762Z,69.29
2023-03-03T04:50:51.029Z,69.72
2023-03-03T04:53:18.057Z,69.97
2023-03-03T04:55:45.214Z,69.48
2023-03-03T04:58:12.608Z,69.64
2023-03-03T05:00:40.492Z,68.98
2023-03-03T05:03:11.925Z,69.00
2023-03-03T05:05:41.810Z,68.96
2023-03-03T05:08:08.808Z,70.50
2023-03-03T05:10:35.826Z,69.80
2023-03-03T05:13:02.928Z,69.97
2023-03-03T05:15:29.935Z,70.10
2023-03-03T05:17:57.181Z,69.54
2023-03-03T05:20:24.747Z,69.78
2023-03-03T05:22:52.529Z,69.63
2023-03-03T05:25:19.548Z,69.69
2023-03-03T05:27:46.690Z,69.81
2023-03-03T05:30:13.894Z,69.69
2023-03-03T05:32:40.987Z,69.15
2023-03-03T05:35:08.420Z,69.21
2023-03-03T05:37:35.390Z,69.24
2023-03-03T05:40:02.368Z,69.62
2023-03-03T05:42:30.379Z,69.23
2023-03-03T05:44:57.650Z,68.95
2023-03-03T05:47:24.714Z,69.25
2023-03-03T05:49:51.741Z,68.61
2023-03-03T05:52:18.730Z,68.87
2023-03-03T05:54:45.801Z,69.39
2023-03-03T05:57:12.790Z,68.46
2023-03-03T05:59:39.853Z,68.40
2023-03-03T06:02:07.021Z,68.30
2023-03-03T06:04:34.452Z,68.17
2023-03-03T06:07:01.709Z,68.49
2023-03-03T06:09:29.454Z,68.73
2023-03-03T06:11:56.581Z,68.34
2023-03-03T06:14:26.005Z,68.17
2023-03-03T06:16:53.976Z,67.90
2023-03-03T06:19:21.273Z,68.09
2023-03-03T06:21:48.251Z,68.03
2023-03-03T06:24:16.473Z,68.40
2023-03-03T06:26:43.658Z,67.54
2023-03-03T06:29:10.629Z,67.34
2023-03-03T06:31:37.679Z,67.95
2023-03-03T06:34:04.651Z,67.96
2023-03-03T06:36:31.690Z,68.16
2023-03-03T06:38:58.660Z,67.89
2023-03-03T06:41:25.671Z,67.82
2023-03-03T06:43:52.768Z,67.77
2023-03-03T06:46:19.753Z,67.93
2023-03-03T06:48:46.798Z,67.43
2023-03-03T06:51:24.802Z,67.12
2023-03-03T06:53:56.105Z,66.90
2023-03-03T06:56:25.841Z,66.43
2023-03-03T06:58:58.765Z,66.71
2023-03-03T07:01:25.950Z,66.02
2023-03-03T07:03:53.086Z,66.20
2023-03-03T07:06:26.058Z,65.64
2023-03-03T07:08:53.357Z,65.81
2023-03-03T07:11:22.916Z,65.66
2023-03-03T07:13:55.614Z,65.17
2023-03-03T07:16:27.527Z,65.82
2023-03-03T07:18:55.834Z,65.66
2023-03-03T07:21:35.754Z,64.75
2023-03-03T07:24:29.409Z,65.16
2023-03-03T07:27:14.117Z,65.15
2023-03-03T07:29:41.649Z,65.02
2023-03-03T07:32:43.396Z,64.50
2023-03-03T07:35:43.839Z,64.65
2023-03-03T07:38:53.182Z,64.86
2023-03-03T07:41:21.145Z,64.72
2023-03-03T07:44:06.112Z,64.57
2023-03-03T07:46:45.230Z,63.93
2023-03-03T07:49:36.906Z,64.38
2023-03-03T07:52:26.926Z,63.55
2023-03-03T07:54:56.708Z,64.25
2023-03-03T07:57:27.142Z,63.72
2023-03-03T08:00:02.339Z,63.91
2023-03-03T08:02:41.678Z,64.33
2023-03-03T08:05:43.849Z,63.64
2023-03-03T08:08:16.216Z,63.57
2023-03-03T08:10:52.774Z,63.63
2023-03-03T08:13:25.333Z,62.45
2023-03-03T08:16:10.867Z,62.91
2023-03-03T08:18:46.475Z,62.43
2023-03-03T08:21:16.729Z,62.72
2023-03-03T08:23:44.917Z,62.07
2023-03-03T08:26:14.127Z,62.31
2023-03-03T08:28:41.444Z,62.53
2023-03-03T08:31:18.315Z,62.86
2023-03-03T08:33:49.525Z,62.77
2023-03-03T08:36:16.582Z,62.36
2023-03-03T08:38:43.710Z,62.24
2023-03-03T08:41:10.755Z,62.46
2023-03-03T08:43:37.717Z,62.40
2023-03-03T08:46:06.926Z,62.43
2023-03-03T08:48:38.518Z,61.73
2023-03-03T08:51:06.103Z,61.99
2023-03-03T08:53:36.624Z,61.92
2023-03-03T08:56:05.181Z,62.59
2023-03-03T08:58:35.541Z,62.15
2023-03-03T09:01:03.997Z,62.38
2023-03-03T09:03:31.102Z,61.54
2023-03-03T09:05:58.156Z,61.61
2023-03-03T09:08:25.244Z,62.23
2023-03-03T09:10:52.233Z,61.65
2023-03-03T09:13:20.312Z,61.78
2023-03-03T09:15:49.350Z,61.39
2023-03-03T09:18:37.279Z,60.83
2023-03-03T09:21:25.648Z,60.71
2023-03-03T09:23:57.235Z,60.54
2023-03-03T09:26:30.302Z,61.00
2023-03-03T09:29:24.026Z,60.91
2023-03-03T09:31:53.430Z,60.61
2023-03-03T09:34:24.753Z,60.40
2023-03-03T09:36:55.977Z,59.76
2023-03-03T09:39:26.358Z,60.13
2023-03-03T09:42:27.226Z,59.39
2023-03-03T09:45:19.211Z,59.25
2023-03-03T09:48:11.517Z,59.23
2023-03-03T09:50:38.483Z,60.29
2023-03-03T09:53:17.391Z,59.71
2023-03-03T09:55:44.448Z,60.43
2023-03-03T09:58:45.792Z,60.62
2023-03-03T10:01:21.670Z,61.10
2023-03-03T10:04:22.641Z,61.11
2023-03-03T10:07:14.269Z,60.96
2023-03-03T10:10:18.370Z,60.73
2023-03-03T10:13:05.408Z,60.72
2023-03-03T10:15:54.108Z,60.58
2023-03-03T10:18:36.818Z,60.47
2023-03-03T10:21:16.468Z,60.75
2023-03-03T10:23:58.349Z,60.01
2023-03-03T10:26:54.614Z,60.32
2023-03-03T10:29:49.026Z,59.64
2023-03-03T10:32:38.703Z,60.31
2023-03-03T10:35:14.663Z,60.68
2023-03-03T10:38:14.851Z,60.18
2023-03-03T10:40:48.274Z,60.01
2023-03-03T10:43:36.426Z,60.77
2023-03-03T10:46:22.118Z,60.51
2023-03-03T10:49:04.703Z,60.87
2023-03-03T10:52:03.609Z,59.93
2023-03-03T10:54:56.190Z,60.72
2023-03-03T10:57:32.104Z,61.05
2023-03-03T11:00:31.730Z,59.59
2023-03-03T11:03:26.475Z,59.71
2023-03-03T11:05:58.125Z,59.61
2023-03-03T11:08:46.582Z,59.75
2023-03-03T11:11:32.239Z,57.65
2023-03-03T11:14:06.685Z,59.49
2023-03-03T11:16:47.579Z,58.67
2023-03-03T11:19:52.929Z,58.73
2023-03-03T11:22:33.502Z,58.38
2023-03-03T11:25:18.878Z,58.31
2023-03-03T11:28:31.055Z,58.79
2023-03-03T11:30:58.109Z,57.82
2023-03-03T11:33:37.236Z,59.10
2023-03-03T11:36:52.263Z,58.18
2023-03-03T11:39:23.749Z,58.26
2023-03-03T11:42:37.764Z,57.32
2023-03-03T11:45:19.943Z,57.32
2023-03-03T11:48:01.260Z,57.74
2023-03-03T11:50:58.669Z,57.65
2023-03-03T11:53:30.010Z,58.43
2023-03-03T11:56:14.796Z,57.81
2023-03-03T11:58:58.232Z,58.11
2023-03-03T12:01:42.063Z,58.02
2023-03-03T12:04:22.382Z,58.76
2023-03-03T12:07:18.920Z,58.41
2023-03-03T12:10:01.574Z,58.23
2023-03-03T12:13:02.275Z,58.96
2023-03-03T12:15:33.761Z,59.02
2023-03-03T12:18:29.803Z,59.12
2023-03-03T12:21:15.609Z,58.37
2023-03-03T12:23:45.678Z,58.13
2023-03-03T12:26:29.737Z,58.03
2023-03-03T12:29:11.905Z,57.77
2023-03-03T12:31:50.901Z,58.64
2023-03-03T12:34:23.620Z,57.37
2023-03-03T12:37:16.698Z,57.90
2023-03-03T12:40:09.419Z,57.75
2023-03-03T12:43:26.045Z,58.08
2023-03-03T12:46:28.517Z,58.21
2023-03-03T12:48:55.884Z,58.89
2023-03-03T12:51:35.823Z,58.80
2023-03-03T12:54:11.964Z,59.19
2023-03-03T12:56:55.629Z,58.55
2023-03-03T12:59:34.750Z,59.47
2023-03-03T13:02:33.603Z,58.51
2023-03-03T13:05:28.170Z,58.41
2023-03-03T13:08:39.356Z,59.26
2023-03-03T13:11:29.196Z,59.36
2023-03-03T13:14:13.084Z,58.77
2023-03-03T13:16:55.357Z,58.77
2023-03-03T13:19:27.649Z,58.59
2023-03-03T13:22:09.704Z,58.27
2023-03-03T13:24:55.570Z,58.11
2023-03-03T13:27:28.162Z,58.68
2023-03-03T13:30:19.428Z,58.15
2023-03-03T13:33:03.158Z,58.20
2023-03-03T13:35:54.246Z,58.22
2023-03-03T13:38:26.407Z,58.63
2023-03-03T13:41:06.142Z,58.43
2023-03-03T13:43:43.414Z,58.18
2023-03-03T13:46:55.016Z,57.81
2023-03-03T13:49:29.560Z,58.47
2023-03-03T13:52:08.202Z,58.92
2023-03-03T13:54:47.300Z,58.63
2023-03-03T13:57:23.166Z,58.88
2023-03-03T14:00:12.003Z,58.17
2023-03-03T14:03:00.424Z,58.21
2023-03-03T14:05:48.688Z,57.88
2023-03-03T14:08:34.150Z,57.96
2023-03-03T14:11:04.280Z,57.68
2023-03-03T14:13:57.745Z,58.28
2023-03-03T14:16:41.928Z,58.15
2023-03-03T14:19:33.180Z,57.86
2023-03-03T14:22:30.578Z,58.06
2023-03-03T14:25:02.739Z,58.25
2023-03-03T14:28:00.772Z,58.22
2023-03-03T14:30:28.258Z,58.77
2023-03-03T14:33:10.835Z,58.01
2023-03-03T14:35:43.279Z,57.88
2023-03-03T14:38:23.803Z,57.56
2023-03-03T14:41:14.319Z,58.23
2023-03-03T14:43:44.056Z,57.98
2023-03-03T14:46:32.247Z,58.43
2023-03-03T14:49:32.894Z,57.43
2023-03-03T14:52:04.730Z,58.01
2023-03-03T14:54:38.799Z,58.08
2023-03-03T14:57:46.189Z,58.28
2023-03-03T15:00:13.761Z,58.00
2023-03-03T15:02:46.460Z,58.30
2023-03-03T15:05:19.797Z,58.19
2023-03-03T15:07:53.613Z,58.23
2023-03-03T15:10:47.141Z,58.82
2023-03-03T15:13:20.112Z,58.70
2023-03-03T15:16:01.084Z,58.72
2023-03-03T15:18:32.586Z,58.37
2023-03-03T15:21:08.130Z,58.08
2023-03-03T15:23:47.278Z,58.36
2023-03-03T15:26:30.073Z,57.89
2023-03-03T15:29:34.529Z,57.69
2023-03-03T15:32:21.548Z,57.85
2023-03-03T15:35:01.868Z,57.67
2023-03-03T15:37:55.463Z,58.39
2023-03-03T15:40:52.791Z,58.28
2023-03-03T15:43:27.613Z,58.35
2023-03-03T15:46:35.352Z,58.20
2023-03-03T15:49:31.249Z,57.63
2023-03-03T15:52:33.323Z,57.28
2023-03-03T15:55:36.703Z,57.80
2023-03-03T15:58:30.553Z,57.51
2023-03-03T16:01:03.610Z,57.90
2023-03-03T16:03:56.683Z,58.24
2023-03-03T16:06:38.704Z,58.25
2023-03-03T16:09:23.522Z,58.11
2023-03-03T16:11:59.980Z,58.05
2023-03-03T16:14:39.096Z,58.11
2023-03-03T16:17:15.156Z,58.33
2023-03-03T16:20:14.330Z,58.22
2023-03-03T16:23:02.405Z,57.83
2023-03-03T16:25:47.904Z,57.75
2023-03-03T16:28:23.090Z,58.02
2023-03-03T16:31:13.129Z,58.07
2023-03-03T16:33:55.454Z,57.60
2023-03-03T16:36:29.626Z,58.03
2023-03-03T16:39:26.058Z,58.35
2023-03-03T16:42:05.160Z,58.18
2023-03-03T16:44:38.530Z,58.63
2023-03-03T16:47:35.660Z,57.83
2023-03-03T16:50:15.832Z,57.48
2023-03-03T16:52:54.136Z,57.73
2023-03-03T16:55:56.220Z,57.61
2023-03-03T16:58:46.761Z,57.20
2023-03-03T17:01:28.851Z,57.69
2023-03-03T17:03:55.852Z,57.31
2023-03-03T17:06:33.937Z,57.65
2023-03-03T17:09:32.849Z,57.27
2023-03-03T17:12:09.314Z,57.89
2023-03-03T17:14:48.651Z,57.13
2023-03-03T17:17:35.479Z,57.62
2023-03-03T17:20:28.976Z,57.24
2023-03-03T17:23:03.182Z,57.47
2023-03-03T17:26:08.330Z,57.75
2023-03-03T17:29:01.120Z,57.04
2023-03-03T17:31:51.956Z,57.36
2023-03-03T17:34:40.979Z,57.81
2023-03-03T17:37:07.939Z,57.73
2023-03-03T17:40:18.017Z,58.07
2023-03-03T17:43:19.266Z,57.76
2023-03-03T17:45:50.591Z,58.00
2023-03-03T17:48:20.624Z,58.23
2023-03-03T17:51:15.584Z,57.64
2023-03-03T17:53:50.438Z,58.31
2023-03-03T17:56:53.124Z,58.47
2023-03-03T17:59:34.768Z,58.33
2023-03-03T18:02:30.520Z,58.87
2023-03-03T18:05:24.855Z,58.43
2023-03-03T18:08:24.923Z,58.80
2023-03-03T18:11:14.167Z,58.75
2023-03-03T18:13:55.884Z,58.43
2023-03-03T18:16:28.035Z,58.30
2023-03-03T18:19:01.089Z,58.81
2023-03-03T18:21:36.941Z,58.55
2023-03-03T18:24:27.893Z,58.74
2023-03-03T18:26:56.427Z,58.74
2023-03-03T18:29:28.272Z,58.37
2023-03-03T18:31:58.150Z,58.10
2023-03-03T18:34:36.309Z,58.83
2023-03-03T18:37:30.563Z,58.29
2023-03-03T18:40:03.806Z,58.54
2023-03-03T18:42:39.120Z,58.15
2023-03-03T18:45:18.151Z,58.00
2023-03-03T18:48:00.856Z,58.50
2023-03-03T18:50:34.963Z,58.19
2023-03-03T18:53:20.493Z,58.66
2023-03-03T18:55:50.661Z,58.36
2023-03-03T18:58:17.646Z,58.73
2023-03-03T19:00:54.832Z,58.60
2023-03-03T19:03:34.253Z,58.67
2023-03-03T19:06:02.870Z,58.70
2023-03-03T19:08:44.397Z,58.50
2023-03-03T19:11:32.787Z,58.26
2023-03-03T19:14:21.324Z,58.68
2023-03-03T19:16:49.789Z,58.71
2023-03-03T19:19:23.250Z,58.77
2023-03-03T19:22:26.373Z,58.79
2023-03-03T19:25:26.930Z,58.89
2023-03-03T19:28:15.722Z,58.73
2023-03-03T19:30:51.735Z,58.92
2023-03-03T19:33:40.906Z,59.05
2023-03-03T19:36:37.441Z,58.95
2023-03-03T19:39:25.372Z,58.75
2023-03-03T19:42:10.857Z,58.70
2023-03-03T19:44:43.612Z,58.53
2023-03-03T19:47:13.263Z,58.86
2023-03-03T19:50:05.356Z,58.86
2023-03-03T19:52:41.434Z,59.08
2023-03-03T19:55:20.519Z,58.31
2023-03-03T19:58:07.014Z,58.75
2023-03-03T20:00:52.299Z,58.89
2023-03-03T20:03:41.003Z,59.14
2023-03-03T20:06:10.563Z,58.92
2023-03-03T20:09:02.968Z,59.22
2023-03-03T20:11:59.265Z,59.14
2023-03-03T20:14:35.313Z,59.41
2023-03-03T20:17:30.772Z,59.06
2023-03-03T20:20:22.949Z,58.96
2023-03-03T20:23:17.057Z,59.13
2023-03-03T20:26:04.269Z,59.44
2023-03-03T20:29:06.598Z,59.92
2023-03-03T20:32:01.393Z,59.33
2023-03-03T20:35:00.553Z,59.52
2023-03-03T20:37:55.420Z,59.49
2023-03-03T20:40:40.587Z,59.71
2023-03-03T20:43:22.083Z,59.80
2023-03-03T20:46:08.055Z,60.04
2023-03-03T20:48:53.631Z,59.89
2023-03-03T20:51:57.859Z,59.73
2023-03-03T20:54:40.610Z,59.41
2023-03-03T20:57:29.018Z,60.25
2023-03-03T21:00:02.709Z,59.71
2023-03-03T21:02:46.674Z,59.87
2023-03-03T21:05:20.015Z,59.71
2023-03-03T21:08:08.201Z,59.36
2023-03-03T21:10:37.523Z,59.54
2023-03-03T21:13:29.616Z,59.51
2023-03-03T21:16:03.113Z,59.37
2023-03-03T21:18:30.567Z,59.35
2023-03-03T21:20:57.571Z,59.69
2023-03-03T21:23:24.611Z,59.61
2023-03-03T21:25:54.246Z,59.95
2023-03-03T21:28:26.912Z,59.89
2023-03-03T21:31:14.158Z,60.54
2023-03-03T21:33:58.200Z,60.17
2023-03-03T21:36:37.032Z,60.40
2023-03-03T21:39:23.027Z,60.40
2023-03-03T21:41:56.204Z,60.36
2023-03-03T21:44:52.535Z,60.74
2023-03-03T21:47:22.485Z,61.26
2023-03-03T21:49:51.573Z,60.61
2023-03-03T21:52:20.744Z,60.34
2023-03-03T21:54:49.733Z,60.36
2023-03-03T21:57:17.168Z,60.22
2023-03-03T21:59:44.141Z,60.61
2023-03-03T22:02:11.143Z,60.78
2023-03-03T22:04:42.306Z,60.69
2023-03-03T22:07:09.866Z,60.78
2023-03-03T22:09:37.898Z,60.58
2023-03-03T22:12:06.196Z,60.92
2023-03-03T22:14:33.599Z,60.65
2023-03-03T22:17:00.632Z,60.92
2023-03-03T22:19:27.607Z,61.09
2023-03-03T22:21:54.597Z,60.88
2023-03-03T22:24:21.615Z,61.10
2023-03-03T22:26:48.679Z,60.69
2023-03-03T22:29:17.244Z,60.87
2023-03-03T22:31:44.274Z,60.72
2023-03-03T22:34:11.400Z,60.77
2023-03-03T22:36:38.408Z,60.86
2023-03-03T22:39:05.394Z,60.72
2023-03-03T22:41:34.992Z,60.69
2023-03-03T22:44:01.952Z,60.75
2023-03-03T22:46:28.952Z,60.97
2023-03-03T22:48:56.026Z,61.05
2023-03-03T22:51:23.038Z,61.14
2023-03-03T22:53:50.148Z,61.08
2023-03-03T22:56:17.239Z,61.32
2023-03-03T22:58:44.259Z,61.11
2023-03-03T23:01:11.273Z,61.11
2023-03-03T23:03:38.423Z,61.03
2023-03-03T23:06:05.838Z,61.29
2023-03-03T23:08:32.880Z,61.07
2023-03-03T23:10:59.864Z,61.24
2023-03-03T23:13:27.496Z,61.21
2023-03-03T23:15:58.571Z,61.57
2023-03-03T23:18:29.682Z,61.59
2023-03-03T23:20:57.230Z,61.32
2023-03-03T23:23:24.737Z,62.15
2023-03-03T23:25:51.747Z,61.85
2023-03-03T23:28:19.445Z,62.16
2023-03-03T23:30:46.524Z,61.65
2023-03-03T23:33:13.798Z,61.88
2023-03-03T23:35:41.218Z,61.41
2023-03-03T23:38:08.382Z,61.78
2023-03-03T23:40:35.407Z,61.71
2023-03-03T23:43:02.461Z,61.79
2023-03-03T23:45:29.447Z,61.86
2023-03-03T23:47:56.691Z,61.80
2023-03-03T23:50:23.686Z,61.78
2023-03-03T23:52:50.896Z,61.96
2023-03-03T23:55:17.982Z,62.20
2023-03-03T23:57:45.017Z,62.46
